createdAt,value
2019-03-01T00:05:02.810Z,23.6
2019-03-01T00:20:03.903Z,23.6
2019-03-01T00:35:03.189Z,23.6
2019-03-01T00:50:03.164Z,23.6
2019-03-01T01:05:03.095Z,23.6
2019-03-01T01:20:03.301Z,23.6
2019-03-01T01:35:02.926Z,23.5
2019-03-01T01:50:02.555Z,23.5
2019-03-01T02:05:02.918Z,23.5
2019-03-01T02:20:03.417Z,23.4
2019-03-01T02:35:02.991Z,23.3
2019-03-01T02:50:02.816Z,23.2
2019-03-01T03:05:03.911Z,23.2
2019-03-01T03:20:02.604Z,23.1
2019-03-01T03:35:03.307Z,23.1
2019-03-01T03:50:03.212Z,23.1
2019-03-01T04:05:02.698Z,23.1
2019-03-01T04:20:04.697Z,23.1
2019-03-01T04:35:03.391Z,23.1
2019-03-01T04:50:03.081Z,23.1
2019-03-01T05:05:03.553Z,23.1
2019-03-01T05:20:03.443Z,23.1
2019-03-01T05:35:03.610Z,23.1
2019-03-01T05:50:04.529Z,23.1
2019-03-01T06:05:04.080Z,23.1
2019-03-01T06:20:03.885Z,23.2
2019-03-01T06:35:03.258Z,23.2
2019-03-01T06:50:03.550Z,23.3
2019-03-01T07:05:03.629Z,23.4
2019-03-01T07:20:03.521Z,23.5
2019-03-01T07:35:03.624Z,23.6
2019-03-01T07:50:05.038Z,23.7
2019-03-01T08:05:05.029Z,23.8
2019-03-01T08:20:03.324Z,23.9
2019-03-01T08:35:05.098Z,24
2019-03-01T08:50:03.484Z,24
2019-03-01T09:05:05.105Z,24.1
2019-03-01T09:20:04.284Z,24.2
2019-03-01T09:35:04.267Z,24.2
2019-03-01T09:50:04.299Z,24.3
2019-03-01T10:05:02.973Z,24.4
2019-03-01T10:20:03.357Z,24.4
2019-03-01T10:35:02.987Z,24.4
2019-03-01T10:50:03.177Z,24.5
2019-03-01T11:05:03.124Z,24.6
2019-03-01T11:20:03.420Z,24.6
2019-03-01T11:35:03.227Z,24.6
2019-03-01T11:50:03.393Z,24.6
2019-03-01T12:05:02.993Z,24.6
2019-03-01T12:20:03.613Z,24.7
2019-03-01T12:35:03.769Z,24.7
2019-03-01T12:50:04.226Z,24.7
2019-03-01T13:05:03.037Z,24.7
2019-03-01T13:20:03.673Z,24.7
2019-03-01T13:35:03.965Z,24.7
2019-03-01T13:50:06.664Z,24.7
2019-03-01T14:05:02.768Z,24.8
2019-03-01T14:20:04.155Z,24.7
2019-03-01T14:35:03.907Z,24.7
2019-03-01T14:50:02.943Z,24.5
2019-03-01T15:05:05.272Z,24.4
2019-03-01T15:20:04.790Z,24.1
2019-03-01T15:35:04.338Z,24
2019-03-01T15:50:03.219Z,23.9
2019-03-01T16:05:03.135Z,23.8
2019-03-01T16:20:03.275Z,23.7
2019-03-01T16:35:03.717Z,23.6
2019-03-01T16:50:06.098Z,23.5
2019-03-01T17:05:04.742Z,23.5
2019-03-01T17:20:03.707Z,23.4
2019-03-01T17:35:04.847Z,23.3
2019-03-01T17:50:05.410Z,23.3
2019-03-01T18:05:03.276Z,23.2
2019-03-01T18:20:03.900Z,23.2
2019-03-01T18:35:03.018Z,23.2
2019-03-01T18:50:03.861Z,23.2
2019-03-01T19:05:04.471Z,23.2
2019-03-01T19:20:05.630Z,23.2
2019-03-01T19:35:03.240Z,23.2
2019-03-01T19:50:03.529Z,23.2
2019-03-01T20:05:03.469Z,23.2
2019-03-01T20:20:03.637Z,23.2
2019-03-01T20:35:05.186Z,23.2
2019-03-01T20:50:03.588Z,23.2
2019-03-01T21:05:03.247Z,23.3
2019-03-01T21:20:04.063Z,23.3
2019-03-01T21:35:03.092Z,23.3
2019-03-01T21:50:05.518Z,23.3
2019-03-01T22:05:03.406Z,23.3
2019-03-01T22:20:05.631Z,23.3
2019-03-01T22:35:06.453Z,23.4
2019-03-01T22:50:03.945Z,23.5
2019-03-01T23:05:03.806Z,23.5
2019-03-01T23:20:02.858Z,23.6
2019-03-01T23:35:02.702Z,23.6
2019-03-01T23:50:03.806Z,23.6
